NCAR-RAP Real-Time Weather Data

Output produced by METARs form (14 October 2019  22:50 UTC)
found at http://weather.rap.ucar.edu/surface/
 
KINL 142155Z AUTO 29003KT 10SM OVC027 06/01 A2988 RMK AO2 SLP131 T00560006
KINL 142055Z AUTO 28007KT 10SM OVC028 06/00 A2988 RMK AO2 SLP131 T00610000 56001